createdAt,value
2022-09-16T00:01:18.632Z,23.34
2022-09-16T00:03:21.804Z,23.35
2022-09-16T00:05:27.107Z,23.35
2022-09-16T00:07:30.122Z,23.33
2022-09-16T00:09:34.574Z,23.29
2022-09-16T00:11:36.822Z,23.31
2022-09-16T00:13:39.206Z,23.33
2022-09-16T00:15:46.272Z,23.23
2022-09-16T00:17:48.303Z,23.26
2022-09-16T00:19:51.146Z,23.28
2022-09-16T00:21:53.146Z,23.27
2022-09-16T00:23:56.419Z,23.24
2022-09-16T00:25:58.527Z,23.23
2022-09-16T00:28:00.615Z,23.24
2022-09-16T00:30:02.790Z,23.24
2022-09-16T00:32:08.148Z,23.26
2022-09-16T00:34:10.185Z,23.20
2022-09-16T00:36:20.157Z,23.19
2022-09-16T00:38:22.184Z,23.23
2022-09-16T00:40:24.349Z,23.22
2022-09-16T00:42:26.570Z,23.26
2022-09-16T00:45:05.780Z,23.18
2022-09-16T00:47:07.891Z,23.22
2022-09-16T00:49:22.408Z,23.15
2022-09-16T00:51:25.746Z,23.19
2022-09-16T00:53:42.756Z,23.17
2022-09-16T00:55:46.278Z,23.17
2022-09-16T00:57:49.352Z,23.17
2022-09-16T00:59:55.768Z,23.13
2022-09-16T01:02:05.293Z,23.14
2022-09-16T01:04:18.355Z,23.14
2022-09-16T01:06:22.556Z,23.16
2022-09-16T01:08:25.365Z,23.17
2022-09-16T01:10:27.654Z,23.15
2022-09-16T01:12:34.296Z,23.13
2022-09-16T01:14:55.182Z,23.13
2022-09-16T01:17:43.880Z,23.12
2022-09-16T01:20:04.640Z,23.10
2022-09-16T01:22:06.911Z,23.11
2022-09-16T01:24:33.735Z,23.01
2022-09-16T01:26:44.736Z,22.96
2022-09-16T01:29:08.121Z,22.96
2022-09-16T01:31:29.548Z,22.96
2022-09-16T01:33:59.915Z,22.96
2022-09-16T01:36:42.820Z,22.92
2022-09-16T01:39:05.331Z,22.93
2022-09-16T01:41:19.464Z,22.82
2022-09-16T01:43:28.879Z,22.86
2022-09-16T01:45:40.274Z,22.88
2022-09-16T01:48:27.793Z,22.89
2022-09-16T01:50:33.967Z,22.86
2022-09-16T01:52:38.778Z,22.88
2022-09-16T01:54:55.034Z,22.88
2022-09-16T01:57:18.520Z,22.83
2022-09-16T01:59:34.371Z,22.85
2022-09-16T02:01:57.446Z,22.92
2022-09-16T02:04:07.189Z,22.91
2022-09-16T02:06:31.825Z,22.91
2022-09-16T02:08:50.078Z,22.88
2022-09-16T02:10:58.567Z,22.91
2022-09-16T02:13:09.514Z,22.85
2022-09-16T02:15:18.943Z,22.82
2022-09-16T02:17:25.695Z,22.79
2022-09-16T02:19:37.434Z,22.81
2022-09-16T02:21:45.633Z,22.80
2022-09-16T02:23:53.583Z,22.78
2022-09-16T02:25:57.610Z,22.79
2022-09-16T02:28:05.539Z,22.82
2022-09-16T02:30:17.235Z,22.79
2022-09-16T02:32:22.792Z,22.80
2022-09-16T02:34:32.828Z,22.79
2022-09-16T02:36:38.245Z,22.77
2022-09-16T02:38:47.786Z,22.69
2022-09-16T02:40:59.977Z,22.69
2022-09-16T02:43:03.374Z,22.74
2022-09-16T02:45:05.981Z,22.78
2022-09-16T02:47:47.291Z,22.73
2022-09-16T02:50:02.003Z,22.72
2022-09-16T02:52:13.174Z,22.76
2022-09-16T02:54:24.717Z,22.70
2022-09-16T02:56:37.841Z,22.63
2022-09-16T02:58:40.055Z,22.69
2022-09-16T03:00:47.724Z,22.64
2022-09-16T03:02:50.159Z,22.66
2022-09-16T03:04:52.810Z,22.66
2022-09-16T03:06:54.986Z,22.67
2022-09-16T03:09:00.706Z,22.62
2022-09-16T03:11:35.162Z,22.60
2022-09-16T03:13:55.289Z,22.59
2022-09-16T03:16:46.096Z,22.60
2022-09-16T03:18:56.623Z,22.68
2022-09-16T03:21:30.527Z,22.66
2022-09-16T03:23:36.378Z,22.66
2022-09-16T03:26:04.394Z,22.64
2022-09-16T03:28:14.302Z,22.63
2022-09-16T03:30:16.749Z,22.66
2022-09-16T03:32:28.500Z,22.64
2022-09-16T03:34:48.843Z,22.55
2022-09-16T03:36:57.160Z,22.59
2022-09-16T03:39:01.896Z,22.58
2022-09-16T03:41:07.458Z,22.58
2022-09-16T03:43:12.960Z,22.59
2022-09-16T03:45:17.584Z,22.58
2022-09-16T03:47:19.743Z,22.60
2022-09-16T03:49:21.987Z,22.57
2022-09-16T03:51:25.018Z,22.57
2022-09-16T03:53:27.163Z,22.55
2022-09-16T03:55:29.427Z,22.52
2022-09-16T03:57:32.265Z,22.51
2022-09-16T03:59:34.405Z,22.51
2022-09-16T04:01:36.625Z,22.53
2022-09-16T04:03:39.121Z,22.51
2022-09-16T04:05:41.354Z,22.47
2022-09-16T04:07:43.268Z,22.43
2022-09-16T04:09:45.283Z,22.38
2022-09-16T04:11:47.317Z,22.42
2022-09-16T04:13:49.512Z,22.41
2022-09-16T04:15:52.398Z,22.36
2022-09-16T04:17:56.405Z,22.35
2022-09-16T04:19:58.928Z,22.35
2022-09-16T04:22:01.223Z,22.32
2022-09-16T04:24:03.542Z,22.30
2022-09-16T04:26:05.779Z,22.29
2022-09-16T04:28:09.034Z,22.26
2022-09-16T04:30:12.067Z,22.26
2022-09-16T04:32:14.188Z,22.27
2022-09-16T04:34:16.317Z,22.30
2022-09-16T04:36:20.280Z,22.27
2022-09-16T04:38:22.426Z,22.28
2022-09-16T04:40:24.994Z,22.26
2022-09-16T04:42:27.024Z,22.28
2022-09-16T04:44:30.420Z,22.24
2022-09-16T04:46:32.777Z,22.26
2022-09-16T04:48:34.917Z,22.29
2022-09-16T04:50:36.857Z,22.27
2022-09-16T04:52:39.188Z,22.29
2022-09-16T04:54:41.289Z,22.26
2022-09-16T04:56:43.471Z,22.26
2022-09-16T04:58:49.869Z,22.23
2022-09-16T05:00:51.759Z,22.23
2022-09-16T05:02:55.077Z,22.25
2022-09-16T05:04:57.262Z,22.23
2022-09-16T05:06:59.565Z,22.25
2022-09-16T05:09:02.219Z,22.25
2022-09-16T05:11:10.244Z,22.25
2022-09-16T05:13:12.161Z,22.30
2022-09-16T05:15:14.438Z,22.27
2022-09-16T05:17:39.524Z,22.25
2022-09-16T05:19:38.384Z,22.23
2022-09-16T05:21:41.335Z,22.27
2022-09-16T05:23:47.029Z,22.27
2022-09-16T05:25:49.787Z,22.29
2022-09-16T05:27:52.175Z,22.28
2022-09-16T05:29:54.245Z,22.30
2022-09-16T05:31:58.747Z,22.28
2022-09-16T05:34:11.745Z,22.26
2022-09-16T05:36:18.250Z,22.29
2022-09-16T05:38:20.482Z,22.33
2022-09-16T05:40:23.330Z,22.32
2022-09-16T05:42:25.509Z,22.38
2022-09-16T05:44:28.927Z,22.45
2022-09-16T05:46:30.964Z,22.46
2022-09-16T05:48:34.283Z,22.45
2022-09-16T05:50:38.883Z,22.48
2022-09-16T05:52:41.343Z,22.50
2022-09-16T05:54:43.694Z,22.49
2022-09-16T05:56:46.780Z,22.49
2022-09-16T05:58:49.363Z,22.49
2022-09-16T06:00:52.414Z,22.51
2022-09-16T06:02:54.578Z,22.51
2022-09-16T06:04:56.871Z,22.49
2022-09-16T06:07:00.468Z,22.46
2022-09-16T06:09:29.786Z,22.35
2022-09-16T06:11:32.330Z,22.45
2022-09-16T06:13:37.890Z,22.38
2022-09-16T06:15:40.374Z,22.38
2022-09-16T06:17:42.477Z,22.38
2022-09-16T06:19:44.708Z,22.38
2022-09-16T06:21:47.206Z,22.36
2022-09-16T06:23:50.073Z,22.39
2022-09-16T06:26:22.785Z,22.33
2022-09-16T06:28:25.089Z,22.44
2022-09-16T06:30:31.002Z,22.47
2022-09-16T06:32:34.041Z,22.51
2022-09-16T06:34:36.583Z,22.54
2022-09-16T06:36:44.728Z,22.52
2022-09-16T06:38:48.249Z,22.57
2022-09-16T06:40:51.425Z,22.60
2022-09-16T06:42:58.310Z,22.59
2022-09-16T06:45:04.657Z,22.56
2022-09-16T06:47:07.151Z,22.55
2022-09-16T06:49:11.279Z,22.55
2022-09-16T06:51:16.704Z,22.59
2022-09-16T06:53:18.877Z,22.62
2022-09-16T06:55:21.423Z,22.63
2022-09-16T06:57:23.803Z,22.62
2022-09-16T06:59:26.280Z,22.66
2022-09-16T07:01:30.485Z,22.67
2022-09-16T07:03:33.493Z,22.68
2022-09-16T07:05:35.977Z,22.71
2022-09-16T07:07:39.751Z,22.72
2022-09-16T07:09:42.217Z,22.69
2022-09-16T07:11:44.854Z,22.71
2022-09-16T07:13:48.729Z,22.73
2022-09-16T07:16:11.766Z,22.72
2022-09-16T07:18:13.798Z,22.76
2022-09-16T07:20:16.462Z,22.72
2022-09-16T07:22:21.162Z,22.74
2022-09-16T07:24:23.612Z,22.78
2022-09-16T07:26:28.665Z,22.80
2022-09-16T07:28:31.679Z,22.80
2022-09-16T07:30:34.596Z,22.78
2022-09-16T07:32:36.966Z,22.77
2022-09-16T07:34:41.495Z,22.73
2022-09-16T07:36:49.184Z,22.73
2022-09-16T07:38:52.832Z,22.79
2022-09-16T07:40:55.354Z,22.80
2022-09-16T07:42:58.324Z,22.81
2022-09-16T07:45:00.486Z,22.82
2022-09-16T07:47:02.831Z,22.83
2022-09-16T07:49:08.236Z,22.82
2022-09-16T07:51:13.389Z,22.89
2022-09-16T07:53:18.187Z,22.94
2022-09-16T07:55:20.773Z,23.01
2022-09-16T07:57:25.519Z,23.10
2022-09-16T07:59:27.956Z,23.17
2022-09-16T08:01:33.502Z,23.21
2022-09-16T08:03:37.597Z,23.24
2022-09-16T08:05:42.860Z,23.24
2022-09-16T08:07:45.137Z,23.29
2022-09-16T08:09:50.842Z,23.30
2022-09-16T08:11:53.999Z,23.25
2022-09-16T08:13:59.025Z,23.29
2022-09-16T08:16:18.685Z,23.24
2022-09-16T08:18:21.050Z,23.32
2022-09-16T08:20:24.744Z,23.36
2022-09-16T08:22:27.365Z,23.40
2022-09-16T08:24:29.468Z,23.42
2022-09-16T08:26:32.156Z,23.48
2022-09-16T08:28:45.273Z,23.42
2022-09-16T08:30:53.581Z,23.47
2022-09-16T08:32:59.670Z,23.51
2022-09-16T08:35:02.503Z,23.57
2022-09-16T08:37:07.265Z,23.59
2022-09-16T08:39:11.975Z,23.62
2022-09-16T08:41:14.057Z,23.65
2022-09-16T08:43:30.335Z,23.67
2022-09-16T08:45:54.528Z,23.57
2022-09-16T08:48:08.268Z,23.68
2022-09-16T08:50:29.334Z,23.68
2022-09-16T08:52:35.583Z,23.77
2022-09-16T08:54:52.792Z,23.76
2022-09-16T08:57:00.481Z,23.85
2022-09-16T08:59:10.558Z,23.86
2022-09-16T09:01:23.548Z,23.84
2022-09-16T09:03:39.122Z,23.90
2022-09-16T09:05:54.148Z,23.98
2022-09-16T09:08:34.896Z,23.92
2022-09-16T09:10:51.631Z,23.97
2022-09-16T09:13:05.981Z,23.97
2022-09-16T09:15:22.879Z,24.01
2022-09-16T09:18:15.713Z,24.04
2022-09-16T09:20:44.227Z,24.12
2022-09-16T09:23:18.169Z,24.15
2022-09-16T09:25:29.883Z,24.19
2022-09-16T09:27:36.627Z,24.20
2022-09-16T09:30:23.694Z,24.13
2022-09-16T09:32:53.577Z,24.13
2022-09-16T09:35:05.920Z,24.21
2022-09-16T09:37:42.083Z,24.25
2022-09-16T09:40:15.066Z,24.33
2022-09-16T09:42:23.738Z,24.45
2022-09-16T09:44:50.686Z,24.48
2022-09-16T09:46:57.741Z,24.50
2022-09-16T09:49:11.825Z,24.51
2022-09-16T09:51:52.486Z,24.51
2022-09-16T09:54:01.452Z,24.51
2022-09-16T09:56:24.575Z,24.55
2022-09-16T09:58:38.084Z,24.62
2022-09-16T10:00:40.396Z,24.64
2022-09-16T10:02:49.526Z,24.64
2022-09-16T10:04:52.342Z,24.66
2022-09-16T10:06:57.142Z,24.66
2022-09-16T10:09:00.389Z,24.71
2022-09-16T10:11:14.915Z,24.71
2022-09-16T10:13:18.005Z,24.73
2022-09-16T10:15:32.023Z,24.71
2022-09-16T10:17:34.501Z,24.74
2022-09-16T10:20:00.287Z,24.69
2022-09-16T10:22:10.018Z,24.63
2022-09-16T10:24:34.945Z,24.58
2022-09-16T10:26:41.342Z,24.62
2022-09-16T10:29:03.906Z,24.58
2022-09-16T10:31:08.876Z,24.67
2022-09-16T10:33:20.412Z,24.59
2022-09-16T10:35:29.180Z,24.60
2022-09-16T10:37:31.273Z,24.63
2022-09-16T10:39:34.232Z,24.61
2022-09-16T10:41:47.813Z,24.53
2022-09-16T10:43:53.772Z,24.50
2022-09-16T10:45:56.434Z,24.49
2022-09-16T10:48:07.059Z,24.45
2022-09-16T10:50:18.450Z,24.38
2022-09-16T10:52:26.634Z,24.32
2022-09-16T10:54:28.865Z,24.34
2022-09-16T10:56:48.809Z,24.30
2022-09-16T10:59:09.775Z,24.29
2022-09-16T11:01:12.722Z,24.32
2022-09-16T11:03:42.934Z,24.26
2022-09-16T11:06:15.939Z,24.20
2022-09-16T11:08:27.220Z,24.20
2022-09-16T11:10:38.108Z,24.23
2022-09-16T11:13:04.578Z,24.15
2022-09-16T11:15:24.332Z,24.11
2022-09-16T11:17:44.590Z,24.11
2022-09-16T11:19:54.819Z,24.04
2022-09-16T11:22:21.039Z,24.00
2022-09-16T11:25:10.564Z,23.97
2022-09-16T11:27:18.172Z,24.00
2022-09-16T11:29:52.402Z,24.05
2022-09-16T11:32:09.218Z,24.00
2022-09-16T11:35:02.876Z,23.94
2022-09-16T11:37:22.230Z,23.99
2022-09-16T11:39:39.108Z,23.95
2022-09-16T11:42:20.105Z,23.97
2022-09-16T11:44:31.479Z,23.96
2022-09-16T11:46:47.095Z,23.98
2022-09-16T11:49:20.415Z,23.93
2022-09-16T11:52:01.301Z,23.91
2022-09-16T11:54:33.990Z,23.96
2022-09-16T11:56:52.459Z,24.02
2022-09-16T11:59:03.727Z,24.01
2022-09-16T12:01:32.033Z,23.96
2022-09-16T12:03:56.780Z,23.95
2022-09-16T12:06:06.111Z,24.00
2022-09-16T12:08:13.513Z,24.02
2022-09-16T12:10:38.366Z,23.93
2022-09-16T12:12:46.794Z,23.97
2022-09-16T12:14:55.925Z,23.95
2022-09-16T12:17:11.838Z,23.90
2022-09-16T12:19:22.317Z,23.91
2022-09-16T12:21:30.234Z,23.93
2022-09-16T12:23:36.552Z,23.95
2022-09-16T12:25:46.427Z,23.95
2022-09-16T12:27:54.802Z,23.94
2022-09-16T12:30:06.174Z,23.94
2022-09-16T12:32:31.813Z,23.89
2022-09-16T12:34:44.488Z,23.97
2022-09-16T12:36:56.314Z,23.98
2022-09-16T12:38:59.789Z,24.00
2022-09-16T12:41:28.814Z,23.98
2022-09-16T12:44:06.555Z,24.05
2022-09-16T12:46:19.037Z,24.08
2022-09-16T12:48:24.003Z,24.09
2022-09-16T12:50:45.010Z,24.12
2022-09-16T12:53:29.020Z,24.11
2022-09-16T12:55:59.158Z,24.02
2022-09-16T12:58:34.220Z,24.01
2022-09-16T13:00:55.456Z,24.02
2022-09-16T13:03:27.876Z,24.08
2022-09-16T13:05:37.531Z,24.03
2022-09-16T13:07:40.504Z,24.11
2022-09-16T13:09:45.003Z,24.17
2022-09-16T13:14:26.086Z,24.15
2022-09-16T13:17:31.397Z,24.15
2022-09-16T13:19:40.205Z,24.20
2022-09-16T13:21:44.924Z,24.20
2022-09-16T13:23:52.488Z,24.19
2022-09-16T13:26:01.492Z,24.18
2022-09-16T13:28:41.910Z,24.20
2022-09-16T13:30:44.316Z,24.27
2022-09-16T13:32:58.232Z,24.16
2022-09-16T13:35:02.080Z,24.21
2022-09-16T13:37:15.716Z,24.04
2022-09-16T13:39:35.740Z,23.95
2022-09-16T13:41:39.583Z,23.91
2022-09-16T13:43:47.442Z,23.77
2022-09-16T13:45:49.676Z,23.80
2022-09-16T13:47:52.125Z,23.80
2022-09-16T13:49:59.414Z,23.77
2022-09-16T13:52:11.891Z,23.76
2022-09-16T13:54:19.846Z,23.71
2022-09-16T13:56:21.844Z,23.77
2022-09-16T13:58:43.529Z,23.73
2022-09-16T14:01:09.008Z,23.80
2022-09-16T14:03:42.131Z,23.84
2022-09-16T14:06:03.107Z,23.86
2022-09-16T14:08:19.665Z,23.87
2022-09-16T14:10:59.069Z,23.91
2022-09-16T14:13:17.271Z,23.93
2022-09-16T14:15:22.647Z,24.00
2022-09-16T14:17:32.386Z,23.99
2022-09-16T14:19:37.947Z,24.01
2022-09-16T14:21:40.121Z,24.00
2022-09-16T14:23:42.157Z,23.95
2022-09-16T14:25:44.207Z,23.92
2022-09-16T14:27:46.841Z,23.90
2022-09-16T14:29:57.015Z,23.89
2022-09-16T14:31:59.432Z,23.93
2022-09-16T14:34:07.655Z,23.89
2022-09-16T14:36:44.320Z,23.89
2022-09-16T14:39:07.014Z,23.92
2022-09-16T14:41:12.847Z,24.03
2022-09-16T14:43:19.313Z,23.95
2022-09-16T14:45:22.462Z,23.94
2022-09-16T14:47:47.410Z,23.95
2022-09-16T14:49:56.970Z,24.00
2022-09-16T14:52:04.376Z,24.02
2022-09-16T14:54:12.783Z,24.01
2022-09-16T14:56:20.100Z,23.96
2022-09-16T14:58:24.718Z,23.99
2022-09-16T15:00:33.928Z,23.96
2022-09-16T15:03:05.219Z,23.90
2022-09-16T15:05:23.492Z,23.95
2022-09-16T15:07:34.079Z,23.98
2022-09-16T15:09:47.735Z,23.95
2022-09-16T15:11:55.726Z,24.02
2022-09-16T15:13:59.077Z,24.02
2022-09-16T15:16:09.400Z,23.94
2022-09-16T15:18:27.388Z,24.02
2022-09-16T15:20:33.492Z,24.00
2022-09-16T15:22:40.833Z,23.95
2022-09-16T15:24:44.178Z,23.97
2022-09-16T15:26:49.417Z,23.98
2022-09-16T15:29:04.483Z,23.91
2022-09-16T15:31:08.262Z,23.93
2022-09-16T15:33:42.140Z,23.85
2022-09-16T15:35:52.721Z,23.86
2022-09-16T15:37:56.043Z,23.89
2022-09-16T15:40:29.099Z,23.84
2022-09-16T15:42:31.821Z,23.85
2022-09-16T15:44:37.749Z,23.71
2022-09-16T15:46:48.336Z,23.60
2022-09-16T15:48:58.516Z,23.53
2022-09-16T15:51:09.598Z,23.48
2022-09-16T15:53:41.999Z,23.36
2022-09-16T15:55:56.886Z,23.34
2022-09-16T15:58:12.105Z,23.27
2022-09-16T16:00:16.377Z,23.31
2022-09-16T16:02:26.514Z,23.23
2022-09-16T16:04:32.018Z,23.20
2022-09-16T16:06:57.238Z,23.15
2022-09-16T16:09:02.754Z,23.15
2022-09-16T16:11:16.557Z,23.11
2022-09-16T16:13:19.086Z,23.13
2022-09-16T16:15:25.797Z,23.09
2022-09-16T16:17:28.200Z,23.13
2022-09-16T16:19:30.975Z,23.14
2022-09-16T16:21:38.880Z,23.10
2022-09-16T16:23:41.188Z,23.08
2022-09-16T16:25:43.488Z,23.06
2022-09-16T16:27:45.895Z,23.03
2022-09-16T16:29:48.350Z,23.04
2022-09-16T16:32:02.000Z,22.94
2022-09-16T16:34:07.224Z,22.98
2022-09-16T16:36:09.566Z,22.97
2022-09-16T16:38:11.711Z,22.96
2022-09-16T16:40:14.400Z,22.95
2022-09-16T16:42:17.142Z,22.93
2022-09-16T16:44:24.451Z,22.93
2022-09-16T16:46:28.051Z,22.91
2022-09-16T16:48:31.046Z,22.91
2022-09-16T16:50:33.238Z,22.86
2022-09-16T16:52:56.520Z,22.79
2022-09-16T16:54:59.375Z,22.79
2022-09-16T16:57:04.369Z,22.77
2022-09-16T16:59:12.339Z,22.70
2022-09-16T17:01:19.210Z,22.68
2022-09-16T17:03:22.862Z,22.65
2022-09-16T17:05:25.185Z,22.62
2022-09-16T17:07:28.298Z,22.59
2022-09-16T17:09:31.059Z,22.58
2022-09-16T17:11:34.180Z,22.56
2022-09-16T17:13:38.514Z,22.54
2022-09-16T17:15:41.587Z,22.49
2022-09-16T17:17:44.517Z,22.49
2022-09-16T17:19:46.634Z,22.46
2022-09-16T17:21:53.876Z,22.46
2022-09-16T17:23:56.677Z,22.41
2022-09-16T17:26:01.906Z,22.35
2022-09-16T17:28:04.016Z,22.34
2022-09-16T17:30:06.828Z,22.34
2022-09-16T17:32:08.710Z,22.32
2022-09-16T17:34:14.122Z,22.31
2022-09-16T17:36:19.790Z,22.30
2022-09-16T17:38:22.284Z,22.24
2022-09-16T17:40:24.885Z,22.25
2022-09-16T17:42:27.433Z,22.23
2022-09-16T17:44:29.859Z,22.23
2022-09-16T17:46:34.633Z,22.20
2022-09-16T17:48:37.878Z,22.19
2022-09-16T17:50:40.521Z,22.17
2022-09-16T17:52:43.649Z,22.15
2022-09-16T17:54:46.246Z,22.10
2022-09-16T17:56:48.699Z,22.09
2022-09-16T17:58:53.057Z,22.07
2022-09-16T18:00:55.483Z,22.03
2022-09-16T18:02:57.780Z,22.05
2022-09-16T18:05:00.416Z,22.02
2022-09-16T18:07:02.836Z,22.00
2022-09-16T18:09:07.490Z,21.98
2022-09-16T18:11:11.567Z,21.95
2022-09-16T18:13:13.851Z,21.95
2022-09-16T18:15:16.050Z,21.92
2022-09-16T18:17:18.938Z,21.92
2022-09-16T18:19:21.143Z,21.89
2022-09-16T18:21:24.715Z,21.88
2022-09-16T18:23:30.000Z,21.84
2022-09-16T18:25:34.386Z,21.83
2022-09-16T18:27:39.573Z,21.83
2022-09-16T18:29:44.568Z,21.81
2022-09-16T18:31:48.445Z,21.78
2022-09-16T18:33:54.949Z,21.78
2022-09-16T18:36:06.251Z,21.70
2022-09-16T18:38:13.139Z,21.72
2022-09-16T18:40:16.945Z,21.72
2022-09-16T18:42:19.150Z,21.68
2022-09-16T18:44:25.365Z,21.67
2022-09-16T18:46:30.709Z,21.63
2022-09-16T18:48:33.003Z,21.63
2022-09-16T18:50:37.974Z,21.60
2022-09-16T18:52:40.665Z,21.60
2022-09-16T18:54:45.711Z,21.60
2022-09-16T18:56:48.306Z,21.60
2022-09-16T18:59:17.298Z,21.53
2022-09-16T19:01:27.226Z,21.45
2022-09-16T19:03:29.800Z,21.32
2022-09-16T19:05:32.141Z,21.35
2022-09-16T19:07:34.353Z,21.31
2022-09-16T19:09:39.972Z,21.31
2022-09-16T19:11:42.450Z,21.30
2022-09-16T19:13:45.247Z,21.34
2022-09-16T19:15:47.992Z,21.32
2022-09-16T19:17:51.123Z,21.35
2022-09-16T19:19:53.426Z,21.33
2022-09-16T19:21:55.853Z,21.33
2022-09-16T19:24:03.631Z,21.33
2022-09-16T19:26:06.250Z,21.34
2022-09-16T19:28:09.085Z,21.35
2022-09-16T19:30:11.835Z,21.27
2022-09-16T19:32:14.450Z,21.26
2022-09-16T19:34:17.378Z,21.25
2022-09-16T19:36:25.037Z,21.22
2022-09-16T19:38:29.107Z,21.25
2022-09-16T19:40:31.735Z,21.22
2022-09-16T19:42:34.065Z,21.12
2022-09-16T19:44:36.314Z,21.02
2022-09-16T19:46:40.249Z,20.90
2022-09-16T19:48:45.081Z,20.92
2022-09-16T19:50:53.542Z,20.93
2022-09-16T19:52:55.932Z,21.00
2022-09-16T19:54:58.069Z,21.04
2022-09-16T19:57:03.211Z,21.06
2022-09-16T19:59:06.164Z,21.02
2022-09-16T20:01:10.267Z,21.02
2022-09-16T20:03:12.677Z,21.02
2022-09-16T20:05:15.615Z,21.04
2022-09-16T20:07:20.500Z,21.03
2022-09-16T20:09:22.876Z,21.01
2022-09-16T20:11:27.749Z,21.01
2022-09-16T20:13:31.475Z,21.03
2022-09-16T20:15:33.540Z,21.03
2022-09-16T20:17:38.447Z,21.03
2022-09-16T20:19:40.790Z,21.03
2022-09-16T20:21:43.563Z,21.03
2022-09-16T20:23:46.733Z,21.00
2022-09-16T20:25:56.170Z,20.87
2022-09-16T20:28:10.812Z,20.88
2022-09-16T20:30:13.438Z,20.89
2022-09-16T20:32:16.007Z,20.91
2022-09-16T20:34:18.500Z,20.92
2022-09-16T20:36:22.964Z,20.94
2022-09-16T20:38:25.210Z,20.95
2022-09-16T20:40:27.820Z,20.95
2022-09-16T20:42:33.760Z,20.94
2022-09-16T20:44:36.239Z,20.92
2022-09-16T20:46:43.108Z,20.87
2022-09-16T20:48:45.738Z,20.89
2022-09-16T20:50:50.363Z,20.88
2022-09-16T20:52:52.973Z,20.85
2022-09-16T20:54:55.051Z,20.82
2022-09-16T20:56:58.113Z,20.81
2022-09-16T20:59:00.754Z,20.80
2022-09-16T21:01:08.373Z,20.77
2022-09-16T21:03:14.408Z,20.81
2022-09-16T21:05:16.673Z,20.79
2022-09-16T21:07:19.045Z,20.70
2022-09-16T21:09:21.242Z,20.65
2022-09-16T21:11:26.460Z,20.67
2022-09-16T21:13:28.608Z,20.66
2022-09-16T21:15:31.675Z,20.69
2022-09-16T21:17:34.509Z,20.68
2022-09-16T21:19:36.707Z,20.67
2022-09-16T21:21:41.258Z,20.70
2022-09-16T21:23:47.343Z,20.71
2022-09-16T21:25:49.879Z,20.66
2022-09-16T21:27:52.536Z,20.62
2022-09-16T21:29:54.660Z,20.63
2022-09-16T21:31:57.596Z,20.59
2022-09-16T21:34:03.296Z,20.60
2022-09-16T21:36:07.144Z,20.61
2022-09-16T21:38:09.376Z,20.64
2022-09-16T21:40:13.074Z,20.64
2022-09-16T21:42:15.627Z,20.63
2022-09-16T21:44:18.281Z,20.58
2022-09-16T21:46:23.247Z,20.60
2022-09-16T21:48:27.730Z,20.56
2022-09-16T21:50:31.464Z,20.52
2022-09-16T21:52:34.120Z,20.52
2022-09-16T21:54:36.392Z,20.52
2022-09-16T21:56:40.497Z,20.49
2022-09-16T21:58:43.204Z,20.44
2022-09-16T22:00:45.218Z,20.45
2022-09-16T22:02:47.479Z,20.40
2022-09-16T22:04:49.572Z,20.39
2022-09-16T22:06:55.760Z,20.39
2022-09-16T22:09:02.125Z,20.38
2022-09-16T22:11:07.744Z,20.33
2022-09-16T22:13:10.295Z,20.33
2022-09-16T22:15:16.759Z,20.29
2022-09-16T22:17:18.856Z,20.25
2022-09-16T22:19:20.864Z,20.15
2022-09-16T22:21:24.613Z,20.07
2022-09-16T22:23:26.952Z,20.09
2022-09-16T22:25:29.034Z,20.08
2022-09-16T22:27:31.077Z,20.09
2022-09-16T22:29:33.767Z,20.09
2022-09-16T22:31:38.315Z,20.12
2022-09-16T22:33:42.752Z,20.07
2022-09-16T22:35:44.916Z,20.09
2022-09-16T22:37:48.946Z,20.05
2022-09-16T22:39:51.609Z,20.03
2022-09-16T22:41:54.300Z,20.01
2022-09-16T22:43:56.755Z,20.00
2022-09-16T22:46:06.312Z,19.96
2022-09-16T22:48:08.425Z,19.96
2022-09-16T22:50:13.279Z,19.95
2022-09-16T22:52:15.418Z,19.94
2022-09-16T22:54:19.765Z,19.88
2022-09-16T22:56:28.673Z,19.84
2022-09-16T22:58:32.080Z,19.83
2022-09-16T23:00:38.521Z,19.82
2022-09-16T23:02:42.517Z,19.78
2022-09-16T23:04:44.787Z,19.77
2022-09-16T23:06:47.463Z,19.78
2022-09-16T23:08:49.859Z,19.76
2022-09-16T23:10:52.538Z,19.74
2022-09-16T23:12:55.572Z,19.71
2022-09-16T23:14:58.980Z,19.72
2022-09-16T23:17:00.966Z,19.70
2022-09-16T23:19:06.052Z,19.70
2022-09-16T23:21:13.318Z,19.70
2022-09-16T23:23:15.344Z,19.65
2022-09-16T23:25:17.358Z,19.66
2022-09-16T23:27:19.423Z,19.67
2022-09-16T23:29:24.129Z,19.64
2022-09-16T23:31:29.760Z,19.60
2022-09-16T23:33:32.354Z,19.65
2022-09-16T23:35:35.021Z,19.62
2022-09-16T23:37:37.355Z,19.56
2022-09-16T23:39:41.687Z,19.57
2022-09-16T23:41:45.241Z,19.59
2022-09-16T23:43:49.309Z,19.58
2022-09-16T23:45:52.106Z,19.62
2022-09-16T23:47:54.432Z,19.61
2022-09-16T23:49:56.666Z,19.58
2022-09-16T23:51:59.002Z,19.56
2022-09-16T23:54:01.197Z,19.53
2022-09-16T23:56:07.760Z,19.49
2022-09-16T23:58:14.122Z,19.52
